Time;durP1;ratioP1;P1;durP2;ratioP2;P2;SDS_P1;SDS_P2;PMS_P1;PMS_P2;Temp;Humidity;BMP_temperature;BMP_pressure;BME280_temperature;BME280_humidity;BME280_pressure;Samples;Min_cycle;Max_cycle;Signal;HPM_P1;HPM_P2
2024/01/21 00:00:29;;;;;;;1.55;1.45;;;;;;;-4.24;100.00;101945.50;5049754;28;20064;-72
2024/01/21 00:02:54;;;;;;;0.40;0.40;;;;;;;-3.38;100.00;102077.44;5056696;28;20056;-73
2024/01/21 00:05:20;;;;;;;0.75;0.75;;;;;;;-3.28;100.00;102095.38;5064809;28;20044;-72
2024/01/21 00:07:45;;;;;;;0.43;0.43;;;;;;;-3.83;100.00;102005.38;5049060;28;20088;-72
2024/01/21 00:10:11;;;;;;;1.95;1.85;;;;;;;-4.13;100.00;101977.19;5053762;28;20051;-72
2024/01/21 00:12:37;;;;;;;4.00;3.70;;;;;;;-3.41;100.00;102091.81;5053226;28;20677;-72
2024/01/21 00:15:04;;;;;;;5.82;5.32;;;;;;;-3.61;100.00;102074.78;5051386;28;20060;-73
2024/01/21 00:17:29;;;;;;;0.82;0.82;;;;;;;-4.01;100.00;101998.69;5054858;28;20025;-72
2024/01/21 00:19:56;;;;;;;0.40;0.40;;;;;;;-3.58;100.00;102097.22;5062343;28;20052;-72
2024/01/21 00:22:21;;;;;;;0.98;0.95;;;;;;;-3.84;100.00;102025.75;5061009;28;20456;-73
2024/01/21 00:24:47;;;;;;;4.20;4.00;;;;;;;-4.32;100.00;101972.16;5057048;28;20033;-73
2024/01/21 00:27:12;;;;;;;3.10;2.95;;;;;;;-3.47;100.00;102105.78;5067400;28;20131;-72
2024/01/21 00:29:38;;;;;;;0.40;0.40;;;;;;;-4.50;100.00;101980.06;5051438;28;20021;-72
2024/01/21 00:32:04;;;;;;;0.50;0.50;;;;;;;-3.95;100.00;102090.63;5050029;28;20048;-73
2024/01/21 00:34:29;;;;;;;1.85;1.75;;;;;;;-4.26;100.00;102042.78;5047878;28;20052;-72
2024/01/21 00:36:55;;;;;;;0.40;0.40;;;;;;;-3.77;100.00;102092.19;5049616;28;20040;-72
2024/01/21 00:39:20;;;;;;;4.05;3.85;;;;;;;-3.87;100.00;102082.81;5047948;28;20041;-73
2024/01/21 00:41:46;;;;;;;1.63;1.52;;;;;;;-4.18;100.00;102022.91;5055175;28;20118;-73
2024/01/21 00:44:11;;;;;;;3.10;3.00;;;;;;;-3.75;100.00;102108.59;5048690;28;20079;-72
2024/01/21 00:46:40;;;;;;;0.82;0.82;;;;;;;-4.16;100.00;102002.56;5051398;28;20490;-72
2024/01/21 00:49:05;;;;;;;0.40;0.40;;;;;;;-4.32;100.00;101996.13;5050418;28;20083;-72
2024/01/21 00:51:31;;;;;;;0.40;0.40;;;;;;;-3.71;100.00;102109.75;5046897;28;20048;-72
2024/01/21 00:53:57;;;;;;;1.13;1.13;;;;;;;-4.63;100.00;101982.34;5055565;28;20104;-73
2024/01/21 00:56:22;;;;;;;2.15;2.05;;;;;;;-4.43;100.00;102013.91;5049833;28;20148;-72
2024/01/21 00:58:47;;;;;;;0.40;0.40;;;;;;;-4.40;100.00;102006.47;5046241;28;20045;-72
2024/01/21 01:01:13;;;;;;;10.10;6.22;;;;;;;-3.95;100.00;102103.44;5049820;28;20076;-73
2024/01/21 01:03:39;;;;;;;0.60;0.60;;;;;;;-4.63;100.00;101968.66;5059864;28;20048;-72
2024/01/21 01:06:05;;;;;;;0.50;0.50;;;;;;;-4.54;100.00;101980.59;5056477;28;20029;-73
2024/01/21 01:08:30;;;;;;;0.98;0.93;;;;;;;-3.99;100.00;102060.38;5057510;28;20057;-72
2024/01/21 01:10:56;;;;;;;0.30;0.30;;;;;;;-3.89;100.00;102086.91;5074659;28;22425;-73
2024/01/21 01:13:21;;;;;;;0.50;0.50;;;;;;;-4.26;100.00;102014.59;5063141;28;20060;-73
2024/01/21 01:15:47;;;;;;;1.00;1.00;;;;;;;-3.99;100.00;102074.06;5058694;28;20045;-73
2024/01/21 01:18:14;;;;;;;0.88;0.88;;;;;;;-4.29;100.00;102050.16;5060690;28;20048;-73
2024/01/21 01:20:40;;;;;;;0.57;0.57;;;;;;;-3.95;100.00;102090.63;5061586;28;20115;-72
2024/01/21 01:23:05;;;;;;;0.30;0.30;;;;;;;-4.70;100.00;101959.56;5057406;28;20143;-72
2024/01/21 01:25:31;;;;;;;10.55;9.90;;;;;;;-4.21;100.00;102083.25;5059576;28;20045;-73
2024/01/21 01:27:56;;;;;;;2.80;1.63;;;;;;;-3.98;100.00;102081.03;5057110;28;20540;-73
2024/01/21 01:30:22;;;;;;;15.25;14.25;;;;;;;-3.97;100.00;102082.81;5045857;28;20355;-73
2024/01/21 01:32:48;;;;;;;0.40;0.40;;;;;;;-4.61;100.00;101991.06;5054193;28;20037;-72
2024/01/21 01:35:13;;;;;;;0.40;0.40;;;;;;;-4.43;100.00;102025.03;5051152;28;20044;-72
2024/01/21 01:37:39;;;;;;;5.05;4.68;;;;;;;-4.17;100.00;102059.69;5063616;28;20433;-72
2024/01/21 01:40:06;;;;;;;9.80;9.20;;;;;;;-4.09;100.00;102090.34;5058213;28;20036;-72
2024/01/21 01:42:32;;;;;;;0.40;0.40;;;;;;;-4.56;100.00;101997.47;5058909;28;20036;-74
2024/01/21 01:44:59;;;;;;;1.05;1.05;;;;;;;-4.49;100.00;102066.41;5054884;28;20178;-72
2024/01/21 01:47:25;;;;;;;1.67;1.63;;;;;;;-4.35;100.00;102080.41;5060685;28;20032;-73
2024/01/21 01:49:50;;;;;;;14.80;13.45;;;;;;;-4.49;100.00;102060.38;5059895;28;20033;-73
2024/01/21 01:52:17;;;;;;;1.95;1.85;;;;;;;-4.44;100.00;102071.03;5057745;28;20044;-73
2024/01/21 01:54:45;;;;;;;2.33;2.17;;;;;;;-5.18;100.00;101980.09;5056739;28;20044;-73
2024/01/21 01:57:13;;;;;;;21.98;19.27;;;;;;;-4.49;100.00;102081.78;5058339;28;20119;-72
2024/01/21 01:59:39;;;;;;;2.60;2.50;;;;;;;-4.25;100.00;102108.63;5050462;28;20086;-72
2024/01/21 02:02:06;;;;;;;3.33;3.10;;;;;;;-4.55;100.00;102090.56;5054492;28;20500;-72
2024/01/21 02:04:33;;;;;;;1.30;1.23;;;;;;;-5.21;100.00;101969.59;5060417;28;20307;-72
2024/01/21 02:06:59;;;;;;;0.75;0.75;;;;;;;-4.38;100.00;102104.84;5054298;28;20571;-73
2024/01/21 02:09:24;;;;;;;0.80;0.80;;;;;;;-4.31;100.00;102102.06;5048980;28;20094;-72
2024/01/21 02:11:50;;;;;;;8.30;7.85;;;;;;;-4.48;100.00;102085.22;5059222;28;20032;-73
2024/01/21 02:14:16;;;;;;;0.50;0.50;;;;;;;-4.48;100.00;102092.91;5056443;28;20044;-72
2024/01/21 02:16:41;;;;;;;3.67;3.47;;;;;;;-4.85;100.00;102038.47;5063853;28;20057;-74
2024/01/21 02:19:19;;;;;;;1.67;1.58;;;;;;;-4.40;100.00;102119.19;5059573;28;20133;-73
2024/01/21 02:21:45;;;;;;;4.40;4.20;;;;;;;-4.55;100.00;102111.97;5060347;28;20044;-72
2024/01/21 02:24:10;;;;;;;4.00;3.80;;;;;;;-4.55;100.00;102111.06;5055886;28;20029;-72
2024/01/21 02:26:36;;;;;;;0.90;0.90;;;;;;;-5.18;100.00;101973.31;5052680;28;20044;-74
2024/01/21 02:29:01;;;;;;;2.28;2.20;;;;;;;-4.97;100.00;101999.00;5057172;28;20053;-74
2024/01/21 02:31:27;;;;;;;2.70;2.60;;;;;;;-4.89;100.00;101992.91;5053314;28;20408;-73
2024/01/21 02:33:52;;;;;;;0.47;0.47;;;;;;;-4.96;100.00;102009.38;5052559;28;20500;-72
2024/01/21 02:36:18;;;;;;;0.50;0.50;;;;;;;-4.21;100.00;102109.78;5054553;28;20070;-72
2024/01/21 02:38:43;;;;;;;1.50;1.40;;;;;;;-4.37;100.00;102107.56;5050879;28;20029;-73
2024/01/21 02:41:09;;;;;;;3.70;3.53;;;;;;;-4.33;100.00;102101.03;5052095;28;20052;-73
2024/01/21 02:43:34;;;;;;;14.48;13.63;;;;;;;-4.57;100.00;102071.63;5053473;28;20538;-72
2024/01/21 02:46:00;;;;;;;0.73;0.73;;;;;;;-5.02;100.00;102002.81;5050373;28;20037;-73
2024/01/21 02:48:25;;;;;;;0.50;0.50;;;;;;;-5.09;100.00;102003.94;5055089;28;20125;-73
2024/01/21 02:50:51;;;;;;;6.40;6.07;;;;;;;-5.49;100.00;101920.22;5055402;28;20511;-74
2024/01/21 02:53:16;;;;;;;1.02;1.02;;;;;;;-4.90;100.00;102035.50;5054081;28;20052;-72
2024/01/21 02:55:42;;;;;;;2.47;2.38;;;;;;;-4.83;100.00;102031.81;5056945;28;20033;-73
2024/01/21 02:58:08;;;;;;;0.40;0.40;;;;;;;-5.09;100.00;102004.81;5058663;28;20627;-73
2024/01/21 03:00:33;;;;;;;0.40;0.40;;;;;;;-4.33;100.00;102129.22;5054496;28;20470;-73
2024/01/21 03:02:59;;;;;;;0.40;0.40;;;;;;;-4.74;100.00;102058.22;5062816;28;20561;-74
2024/01/21 03:05:24;;;;;;;2.70;2.50;;;;;;;-4.33;100.00;102132.69;5077974;28;20473;-72
2024/01/21 03:07:50;;;;;;;1.83;1.75;;;;;;;-4.93;100.00;102019.00;5058119;28;20051;-72
2024/01/21 03:10:15;;;;;;;9.95;8.65;;;;;;;-5.19;100.00;102019.25;5055962;28;20040;-72
2024/01/21 03:12:41;;;;;;;4.13;3.92;;;;;;;-4.93;100.00;102035.22;5065246;28;20045;-72
2024/01/21 03:15:07;;;;;;;3.28;3.10;;;;;;;-4.93;100.00;102037.78;5058014;28;20051;-73
2024/01/21 03:17:32;;;;;;;6.70;6.32;;;;;;;-5.08;100.00;102010.88;5062078;28;20506;-72
2024/01/21 03:19:58;;;;;;;0.63;0.63;;;;;;;-4.39;100.00;102133.81;5066959;28;20032;-73
2024/01/21 03:22:23;;;;;;;1.17;1.13;;;;;;;-4.95;100.00;102036.75;5049837;28;20468;-73
2024/01/21 03:24:49;;;;;;;0.75;0.75;;;;;;;-5.16;100.00;102024.63;5062245;28;20461;-73
2024/01/21 03:27:14;;;;;;;0.60;0.60;;;;;;;-4.55;100.00;102134.13;5063542;28;20086;-73
2024/01/21 03:29:40;;;;;;;1.00;1.00;;;;;;;-4.51;100.00;102126.84;5058425;28;20131;-72
2024/01/21 03:32:06;;;;;;;5.38;5.13;;;;;;;-4.34;100.00;102136.00;5050478;28;20051;-73
2024/01/21 03:34:31;;;;;;;0.40;0.40;;;;;;;-5.04;100.00;102037.59;5057456;28;20033;-72
2024/01/21 03:36:57;;;;;;;2.30;2.15;;;;;;;-4.29;100.00;102139.84;5057002;28;20080;-73
2024/01/21 03:39:22;;;;;;;4.60;4.40;;;;;;;-4.21;100.00;102125.19;5054302;28;20407;-73
2024/01/21 03:41:48;;;;;;;0.98;0.98;;;;;;;-4.67;100.00;102075.03;5055816;28;20145;-73
2024/01/21 03:44:13;;;;;;;1.33;1.30;;;;;;;-4.33;100.00;102140.38;5059378;28;20044;-73
2024/01/21 03:46:40;;;;;;;2.45;2.30;;;;;;;-4.22;100.00;102137.84;5053504;28;20064;-73
2024/01/21 03:49:05;;;;;;;1.58;1.48;;;;;;;-4.72;100.00;102110.47;5054843;28;20060;-73
2024/01/21 03:51:31;;;;;;;0.40;0.40;;;;;;;-4.95;100.00;102028.19;5055463;28;20052;-72
2024/01/21 03:53:56;;;;;;;13.07;12.27;;;;;;;-4.28;100.00;102143.34;5060154;28;20044;-73
2024/01/21 03:56:22;;;;;;;1.10;1.10;;;;;;;-4.84;100.00;102042.84;5054230;28;20084;-73
2024/01/21 03:58:47;;;;;;;0.47;0.47;;;;;;;-4.53;100.00;102124.91;5056078;28;20037;-73
2024/01/21 04:01:13;;;;;;;22.25;20.27;;;;;;;-4.67;100.00;102098.97;5063319;28;20493;-74
2024/01/21 04:03:38;;;;;;;7.10;6.43;;;;;;;-4.42;100.00;102143.81;5054650;28;20033;-73
2024/01/21 04:06:04;;;;;;;0.90;0.90;;;;;;;-5.03;100.00;102040.31;5061470;28;20088;-73
2024/01/21 04:08:29;;;;;;;0.52;0.52;;;;;;;-4.96;100.00;102045.22;5056667;28;20436;-72
2024/01/21 04:10:55;;;;;;;1.05;0.82;;;;;;;-5.22;100.00;102021.50;5058038;28;20072;-73
2024/01/21 04:13:21;;;;;;;0.70;0.70;;;;;;;-4.49;100.00;102143.25;5062834;28;20071;-73
2024/01/21 04:15:47;;;;;;;0.82;0.82;;;;;;;-4.51;100.00;102125.94;5063922;28;20039;-73
2024/01/21 04:18:13;;;;;;;0.68;0.68;;;;;;;-4.51;100.00;102144.78;5060135;28;20116;-73
2024/01/21 04:20:38;;;;;;;0.38;0.38;;;;;;;-4.60;100.00;102132.81;5060976;28;20029;-72
2024/01/21 04:23:04;;;;;;;0.63;0.63;;;;;;;-4.50;100.00;102159.38;5067157;28;20040;-73
2024/01/21 04:25:29;;;;;;;0.50;0.50;;;;;;;-5.12;100.00;102067.66;5056121;28;20123;-73
2024/01/21 04:27:55;;;;;;;0.73;0.70;;;;;;;-5.23;100.00;102045.31;5064388;28;20056;-73
2024/01/21 04:30:20;;;;;;;0.65;0.65;;;;;;;-4.52;100.00;102160.00;5058766;28;20036;-72
2024/01/21 04:32:46;;;;;;;0.35;0.35;;;;;;;-4.96;100.00;102067.34;5052736;28;20124;-73
2024/01/21 04:35:11;;;;;;;0.38;0.38;;;;;;;-5.78;100.00;101964.53;5053873;28;20064;-71
2024/01/21 04:37:37;;;;;;;1.27;1.17;;;;;;;-5.40;100.00;102057.47;5058432;28;20064;-73
2024/01/21 04:40:03;;;;;;;0.30;0.30;;;;;;;-4.72;100.00;102187.28;5051908;28;20048;-73
2024/01/21 04:42:29;;;;;;;0.75;0.75;;;;;;;-4.64;100.00;102193.09;5055369;28;20040;-73
2024/01/21 04:44:55;;;;;;;1.77;1.67;;;;;;;-4.75;100.00;102166.56;5051510;28;20029;-73
2024/01/21 04:47:20;;;;;;;0.30;0.30;;;;;;;-5.06;100.00;102105.66;5062944;28;20069;-73
2024/01/21 04:49:46;;;;;;;10.55;9.93;;;;;;;-4.77;100.00;102200.47;5052375;28;20060;-72
2024/01/21 04:52:12;;;;;;;2.28;2.17;;;;;;;-4.88;100.00;102158.53;5054697;28;20925;-72
2024/01/21 04:54:37;;;;;;;4.57;4.30;;;;;;;-5.12;100.00;102191.38;5055065;28;20071;-72
2024/01/21 04:57:03;;;;;;;0.52;0.52;;;;;;;-4.92;100.00;102190.63;5060346;28;20040;-73
2024/01/21 04:59:28;;;;;;;3.30;3.15;;;;;;;-5.38;100.00;102090.88;5055632;28;20551;-73
2024/01/21 05:01:54;;;;;;;23.15;21.80;;;;;;;-5.32;100.00;102122.13;5059163;28;20036;-73
2024/01/21 05:04:19;;;;;;;0.30;0.30;;;;;;;-4.55;100.00;102244.25;5062294;28;20449;-73
2024/01/21 05:06:45;;;;;;;0.40;0.40;;;;;;;-4.68;100.00;102235.47;5056777;28;20060;-71
2024/01/21 05:09:11;;;;;;;2.08;1.98;;;;;;;-4.78;100.00;102253.31;5052485;28;20031;-73
2024/01/21 05:11:37;;;;;;;0.40;0.40;;;;;;;-5.27;100.00;102149.00;5063754;28;20037;-73
2024/01/21 05:14:03;;;;;;;0.30;0.30;;;;;;;-4.89;100.00;102219.06;5051084;28;20044;-73
2024/01/21 05:16:28;;;;;;;0.40;0.40;;;;;;;-4.94;100.00;102233.09;5061792;28;20052;-73
2024/01/21 05:18:54;;;;;;;0.50;0.50;;;;;;;-4.89;100.00;102252.34;5062519;28;20125;-73
2024/01/21 05:21:20;;;;;;;0.90;0.82;;;;;;;-5.51;100.00;102119.53;5059866;28;20567;-73
2024/01/21 05:23:47;;;;;;;0.50;0.50;;;;;;;-5.00;100.00;102241.88;5059706;28;20028;-73
2024/01/21 05:26:13;;;;;;;0.40;0.40;;;;;;;-4.99;100.00;102226.66;5061215;28;20040;-73
2024/01/21 05:28:39;;;;;;;0.38;0.38;;;;;;;-5.15;100.00;102232.03;5056469;28;20069;-73
2024/01/21 05:31:05;;;;;;;0.40;0.40;;;;;;;-4.90;100.00;102291.47;5053141;28;20041;-73
2024/01/21 05:33:30;;;;;;;0.43;0.43;;;;;;;-5.34;100.00;102214.09;5055309;28;20068;-72
2024/01/21 05:35:56;;;;;;;0.40;0.40;;;;;;;-4.94;100.00;102250.09;5052286;28;20694;-72
2024/01/21 05:38:21;;;;;;;0.73;0.73;;;;;;;-4.73;100.00;102276.78;5053025;28;20080;-73
2024/01/21 05:40:47;;;;;;;2.15;2.05;;;;;;;-5.17;100.00;102191.72;5052667;28;20119;-72
2024/01/21 05:43:12;;;;;;;0.40;0.40;;;;;;;-5.00;100.00;102293.06;5049528;28;20485;-72
2024/01/21 05:45:40;;;;;;;0.45;0.45;;;;;;;-5.13;100.00;102289.38;5052554;28;20043;-72
2024/01/21 05:48:06;;;;;;;1.10;1.10;;;;;;;-5.15;100.00;102283.22;5051385;28;20304;-72
2024/01/21 05:50:31;;;;;;;0.43;0.43;;;;;;;-4.92;100.00;102286.97;5053136;28;20084;-73
2024/01/21 05:52:57;;;;;;;1.15;1.05;;;;;;;-5.07;100.00;102255.75;5054535;28;20068;-73
2024/01/21 05:55:23;;;;;;;6.35;5.78;;;;;;;-5.96;100.00;102109.44;5053218;28;20397;-73
2024/01/21 05:57:48;;;;;;;0.85;0.85;;;;;;;-4.86;100.00;102302.03;5050951;28;20044;-72
2024/01/21 06:00:14;;;;;;;0.50;0.50;;;;;;;-4.73;100.00;102305.88;5053208;28;20503;-73
2024/01/21 06:02:40;;;;;;;0.30;0.30;;;;;;;-4.72;100.00;102304.19;5054636;28;20035;-72
2024/01/21 06:05:06;;;;;;;0.60;0.60;;;;;;;-5.25;100.00;102192.66;5059502;28;20043;-72
2024/01/21 06:07:32;;;;;;;0.50;0.50;;;;;;;-5.46;100.00;102174.56;5054616;28;20132;-72
2024/01/21 06:09:57;;;;;;;0.43;0.43;;;;;;;-4.72;100.00;102296.50;5051032;28;20670;-73
2024/01/21 06:12:23;;;;;;;0.30;0.30;;;;;;;-5.56;100.00;102185.59;5059965;28;20045;-73
2024/01/21 06:14:48;;;;;;;2.85;2.75;;;;;;;-4.75;100.00;102303.91;5064736;28;20473;-74
2024/01/21 06:17:14;;;;;;;0.60;0.60;;;;;;;-5.48;100.00;102167.50;5073652;28;20805;-72
2024/01/21 06:19:40;;;;;;;1.20;1.20;;;;;;;-5.13;100.00;102298.69;5075385;28;20496;-72
2024/01/21 06:22:06;;;;;;;0.60;0.60;;;;;;;-5.38;100.00;102227.34;5059050;28;20040;-72
2024/01/21 06:24:37;;;;;;;0.70;0.70;;;;;;;-5.28;100.00;102249.56;5061712;28;20048;-72
2024/01/21 06:27:03;;;;;;;0.38;0.38;;;;;;;-5.09;100.00;102286.31;5056507;28;20048;-74
2024/01/21 06:29:29;;;;;;;0.60;0.60;;;;;;;-4.93;100.00;102311.69;5064931;28;20123;-73
2024/01/21 06:31:55;;;;;;;0.43;0.43;;;;;;;-5.12;100.00;102244.22;5054872;28;20050;-72
2024/01/21 06:34:20;;;;;;;0.45;0.45;;;;;;;-5.27;100.00;102251.34;5056733;28;20033;-73
2024/01/21 06:36:46;;;;;;;0.40;0.40;;;;;;;-4.70;100.00;102344.53;5053650;28;20051;-73
2024/01/21 06:39:11;;;;;;;0.30;0.30;;;;;;;-4.76;100.00;102320.91;5060665;28;20033;-74
2024/01/21 06:41:37;;;;;;;2.67;1.80;;;;;;;-5.23;100.00;102262.78;5051261;28;20112;-74
2024/01/21 06:44:03;;;;;;;0.40;0.40;;;;;;;-4.81;100.00;102324.72;5049701;28;20068;-74
2024/01/21 06:46:28;;;;;;;0.50;0.50;;;;;;;-4.53;100.00;102351.22;5054059;28;20793;-74
2024/01/21 06:48:54;;;;;;;0.77;0.77;;;;;;;-4.94;100.00;102345.75;5055331;28;20048;-72
2024/01/21 06:51:34;;;;;;;0.70;0.70;;;;;;;-5.57;100.00;102213.59;5057392;28;20056;-72
2024/01/21 06:54:00;;;;;;;1.58;1.48;;;;;;;-5.32;100.00;102225.34;5060838;28;20029;-73
2024/01/21 06:56:26;;;;;;;0.47;0.47;;;;;;;-4.71;100.00;102347.84;5036370;28;20064;-73
2024/01/21 06:58:52;;;;;;;0.40;0.40;;;;;;;-5.47;100.00;102240.94;5053115;28;21023;-73
2024/01/21 07:01:18;;;;;;;0.93;0.93;;;;;;;-5.88;100.00;102200.47;5057726;28;20081;-74
2024/01/21 07:03:45;;;;;;;1.55;1.50;;;;;;;-4.81;100.00;102342.66;5056570;28;20106;-73
2024/01/21 07:06:11;;;;;;;0.40;0.40;;;;;;;-4.75;100.00;102353.47;5055708;28;20033;-72
2024/01/21 07:08:37;;;;;;;0.32;0.32;;;;;;;-4.63;100.00;102347.69;5054194;28;20029;-72
2024/01/21 07:11:07;;;;;;;4.32;4.13;;;;;;;-5.13;100.00;102240.75;5057135;28;20036;-72
2024/01/21 07:13:33;;;;;;;6.63;6.07;;;;;;;-4.61;100.00;102321.44;5063753;28;20477;-73
2024/01/21 07:15:58;;;;;;;0.40;0.40;;;;;;;-4.58;100.00;102366.94;5064264;28;20048;-73
2024/01/21 07:18:25;;;;;;;0.60;0.60;;;;;;;-4.41;100.00;102368.47;5076108;28;20036;-73
2024/01/21 07:20:50;;;;;;;0.50;0.50;;;;;;;-4.42;100.00;102351.31;5062878;28;20033;-72
2024/01/21 07:23:16;;;;;;;12.45;11.45;;;;;;;-4.42;100.00;102364.13;5067449;28;20123;-73
2024/01/21 07:25:42;;;;;;;1.50;1.40;;;;;;;-4.19;100.00;102362.00;5055882;28;20041;-73
2024/01/21 07:28:07;;;;;;;0.40;0.40;;;;;;;-4.57;100.00;102359.38;5065083;28;20044;-73
2024/01/21 07:30:33;;;;;;;1.63;1.52;;;;;;;-4.04;100.00;102382.97;5053702;28;20450;-74
2024/01/21 07:32:58;;;;;;;0.40;0.40;;;;;;;-4.48;100.00;102267.09;5054185;28;20031;-73
2024/01/21 07:35:24;;;;;;;2.85;2.75;;;;;;;-5.24;100.00;102164.66;5055188;28;20025;-72
2024/01/21 07:37:49;;;;;;;0.40;0.40;;;;;;;-4.63;100.00;102258.94;5051934;28;20041;-73
2024/01/21 07:40:15;;;;;;;0.85;0.47;;;;;;;-4.03;100.00;102370.31;5053241;28;20040;-73
2024/01/21 07:42:40;;;;;;;0.40;0.40;;;;;;;-3.95;100.00;102363.28;5056081;28;20045;-72
2024/01/21 07:45:06;;;;;;;0.50;0.50;;;;;;;-4.34;100.00;102276.91;5051260;28;20102;-72
2024/01/21 07:47:32;;;;;;;0.32;0.32;;;;;;;-3.57;100.00;102388.00;5053744;28;20064;-73
2024/01/21 07:49:57;;;;;;;0.50;0.50;;;;;;;-3.83;100.00;102390.03;5052576;28;20060;-72
2024/01/21 07:52:23;;;;;;;5.93;5.63;;;;;;;-3.92;100.00;102299.47;5065201;28;20471;-74
2024/01/21 07:54:48;;;;;;;0.30;0.30;;;;;;;-3.22;100.00;102388.53;5050069;28;20067;-73
2024/01/21 07:57:14;;;;;;;0.65;0.65;;;;;;;-3.77;100.00;102255.41;5052658;28;20401;-73
2024/01/21 07:59:40;;;;;;;2.15;2.05;;;;;;;-3.63;100.00;102288.28;5055249;28;20036;-72
2024/01/21 08:02:05;;;;;;;0.75;0.68;;;;;;;-3.62;100.00;102300.38;5058443;28;20048;-72
2024/01/21 08:04:31;;;;;;;1.20;1.20;;;;;;;-3.02;100.00;102383.47;5060440;28;20106;-73
2024/01/21 08:06:56;;;;;;;0.40;0.40;;;;;;;-3.00;100.00;102393.84;5058143;28;20049;-72
2024/01/21 08:09:22;;;;;;;15.60;14.25;;;;;;;-3.09;100.00;102390.47;5054121;28;20041;-73
2024/01/21 08:11:47;;;;;;;0.40;0.40;;;;;;;-2.80;100.00;102390.44;5065065;28;20025;-72
2024/01/21 08:14:13;;;;;;;0.75;0.68;;;;;;;-2.89;100.00;102338.28;5060137;28;20051;-72
2024/01/21 08:16:39;;;;;;;1.88;1.77;;;;;;;-3.03;100.00;102294.34;5064064;28;20044;-73
2024/01/21 08:19:05;;;;;;;0.38;0.38;;;;;;;-2.50;100.00;102398.97;5059402;28;20440;-74
2024/01/21 08:21:31;;;;;;;0.50;0.50;;;;;;;-2.65;100.00;102376.31;5067493;28;20048;-73
2024/01/21 08:23:57;;;;;;;0.88;0.88;;;;;;;-3.01;100.00;102282.53;5062556;28;20042;-73
2024/01/21 08:26:22;;;;;;;0.35;0.35;;;;;;;-2.79;100.00;102312.59;5068042;28;20591;-74
2024/01/21 08:28:48;;;;;;;0.85;0.85;;;;;;;-2.20;100.00;102413.47;5047628;28;20477;-73
2024/01/21 08:31:14;;;;;;;0.60;0.60;;;;;;;-2.18;100.00;102388.78;5045980;28;20044;-73
2024/01/21 08:33:40;;;;;;;0.32;0.32;;;;;;;-2.83;100.00;102274.59;5049425;28;20481;-73
2024/01/21 08:36:07;;;;;;;1.58;1.55;;;;;;;-2.27;100.00;102408.59;5055075;28;20108;-73
2024/01/21 08:38:33;;;;;;;0.30;0.30;;;;;;;-1.82;100.00;102405.50;5052418;28;20029;-73
2024/01/21 08:40:59;;;;;;;0.43;0.43;;;;;;;-2.13;100.00;102300.09;5047710;28;20781;-72
2024/01/21 08:43:24;;;;;;;0.40;0.40;;;;;;;-1.72;100.00;102393.47;5054523;28;20041;-72
2024/01/21 08:45:50;;;;;;;0.30;0.30;;;;;;;-1.66;100.00;102369.00;5054413;28;20407;-72
2024/01/21 08:48:15;;;;;;;0.40;0.40;;;;;;;-1.49;100.00;102426.25;5049102;28;20025;-73
2024/01/21 08:50:41;;;;;;;0.30;0.30;;;;;;;-1.85;100.00;102346.97;5052762;28;20028;-73
2024/01/21 08:53:06;;;;;;;0.52;0.52;;;;;;;-2.37;100.00;102334.94;5052774;28;20531;-73
2024/01/21 08:55:32;;;;;;;1.20;1.20;;;;;;;-2.00;100.00;102326.00;5054070;28;20629;-72
2024/01/21 08:57:57;;;;;;;0.50;0.50;;;;;;;-1.47;100.00;102381.72;5053585;28;20040;-73
2024/01/21 09:00:23;;;;;;;0.30;0.30;;;;;;;-1.61;100.00;102421.78;5055558;28;20033;-72
2024/01/21 09:02:49;;;;;;;0.45;0.45;;;;;;;-1.82;100.00;102396.09;5061884;28;20153;-72
2024/01/21 09:05:14;;;;;;;0.40;0.40;;;;;;;-1.64;100.00;102363.25;5057694;28;20059;-73
2024/01/21 09:07:40;;;;;;;0.47;0.47;;;;;;;-1.77;100.00;102286.72;5075913;28;20041;-73
2024/01/21 09:10:08;;;;;;;0.30;0.30;;;;;;;-1.25;100.00;102403.25;5059792;28;20131;-72
2024/01/21 09:12:33;;;;;;;1.38;1.33;;;;;;;-1.67;100.00;102295.16;5057647;28;20049;-72
2024/01/21 09:14:59;;;;;;;1.02;1.02;;;;;;;-0.91;100.00;102403.34;5062614;28;20105;-74
2024/01/21 09:17:25;;;;;;;0.50;0.50;;;;;;;-1.63;100.00;102297.22;5061087;28;20029;-73
2024/01/21 09:19:51;;;;;;;0.30;0.30;;;;;;;-1.41;100.00;102285.25;5062691;28;20052;-72
2024/01/21 09:22:16;;;;;;;1.48;1.38;;;;;;;-2.51;100.00;102210.44;5057329;28;20052;-73
2024/01/21 09:24:42;;;;;;;1.63;1.58;;;;;;;-1.74;100.00;102325.53;5059966;28;20040;-74
2024/01/21 09:27:08;;;;;;;0.50;0.50;;;;;;;-1.43;100.00;102280.75;5052977;28;20110;-73
2024/01/21 09:29:33;;;;;;;0.40;0.40;;;;;;;-0.66;100.00;102409.63;5058833;28;20046;-73
2024/01/21 09:31:59;;;;;;;2.95;1.30;;;;;;;-1.23;100.00;102321.84;5048936;28;20049;-71
2024/01/21 09:34:25;;;;;;;0.95;0.95;;;;;;;-1.09;100.00;102347.00;5046298;28;20060;-73
2024/01/21 09:36:51;;;;;;;0.30;0.30;;;;;;;-1.62;100.00;102291.28;5050099;28;20071;-72
2024/01/21 09:39:20;;;;;;;0.52;0.52;;;;;;;-0.72;100.00;102403.09;5063811;28;20393;-72
2024/01/21 09:41:50;;;;;;;4.03;2.85;;;;;;;-0.78;100.00;102382.00;5046187;28;20405;-74
2024/01/21 09:44:19;;;;;;;1.23;1.23;;;;;;;-1.32;100.00;102306.56;5045551;28;20110;-74
2024/01/21 09:47:05;;;;;;;0.30;0.30;;;;;;;-0.92;100.00;102417.00;5052698;28;20045;-72
2024/01/21 09:49:34;;;;;;;0.68;0.68;;;;;;;-1.54;100.00;102309.13;5046811;28;20405;-72
2024/01/21 09:52:02;;;;;;;0.47;0.47;;;;;;;-1.37;100.00;102400.59;5061021;28;20613;-74
2024/01/21 09:54:28;;;;;;;0.75;0.75;;;;;;;-0.80;100.00;102419.63;5049690;28;20500;-73
2024/01/21 09:56:54;;;;;;;0.30;0.30;;;;;;;-1.02;100.00;102376.72;5049619;28;20110;-72
2024/01/21 09:59:19;;;;;;;3.00;2.90;;;;;;;-0.50;100.00;102421.13;5053982;28;20045;-71
2024/01/21 10:01:46;;;;;;;1.40;1.40;;;;;;;-0.57;100.00;102409.41;5058043;28;20040;-73
2024/01/21 10:04:14;;;;;;;0.63;0.63;;;;;;;-0.60;100.00;102367.06;5052184;28;20762;-72
2024/01/21 10:06:40;;;;;;;0.68;0.68;;;;;;;-0.31;100.00;102395.94;5057352;28;20055;-73
2024/01/21 10:09:18;;;;;;;1.23;1.13;;;;;;;-1.11;100.00;102314.19;5051356;28;20056;-73
2024/01/21 10:11:57;;;;;;;0.60;0.60;;;;;;;-0.45;100.00;102414.63;5062906;28;20452;-73
2024/01/21 10:14:27;;;;;;;3.13;2.92;;;;;;;-1.05;100.00;102288.91;5056860;28;20045;-72
2024/01/21 10:16:53;;;;;;;1.35;1.20;;;;;;;-0.46;100.00;102403.41;5075073;28;20041;-73
2024/01/21 10:19:33;;;;;;;0.80;0.80;;;;;;;-0.74;100.00;102325.66;5063890;28;20524;-71
2024/01/21 10:22:13;;;;;;;2.20;1.75;;;;;;;-0.51;100.00;102305.88;5056126;28;20439;-73
2024/01/21 10:24:50;;;;;;;8.43;8.02;;;;;;;-0.44;100.00;102370.03;5061758;28;20488;-73
2024/01/21 10:27:16;;;;;;;0.50;0.50;;;;;;;-0.54;100.00;102383.91;5075691;28;20048;-73
2024/01/21 10:29:44;;;;;;;0.38;0.38;;;;;;;-0.39;100.00;102309.38;5048794;28;20184;-72
2024/01/21 10:32:11;;;;;;;0.40;0.40;;;;;;;-0.40;100.00;102268.88;5046669;28;20156;-73
2024/01/21 10:34:45;;;;;;;0.50;0.50;;;;;;;0.46;100.00;102387.84;5049832;28;20056;-72
2024/01/21 10:37:17;;;;;;;0.30;0.30;;;;;;;0.34;100.00;102367.19;5053029;28;20139;-73
2024/01/21 10:39:47;;;;;;;2.13;2.03;;;;;;;-0.01;100.00;102285.50;5052876;28;20068;-73
2024/01/21 10:42:14;;;;;;;0.40;0.40;;;;;;;0.18;100.00;102300.63;5048166;28;20045;-74
2024/01/21 10:44:40;;;;;;;4.90;4.55;;;;;;;0.54;100.00;102361.78;5050724;28;20029;-72
2024/01/21 10:47:08;;;;;;;0.75;0.75;;;;;;;-0.11;100.00;102317.47;5053422;28;20393;-73
2024/01/21 10:49:35;;;;;;;2.15;1.98;;;;;;;0.28;100.00;102365.06;5051207;28;20124;-73
2024/01/21 10:52:01;;;;;;;1.30;1.30;;;;;;;-0.08;100.00;102369.28;5051380;28;20419;-75
2024/01/21 10:54:27;;;;;;;0.43;0.43;;;;;;;0.30;100.00;102335.06;5045632;28;20041;-72
2024/01/21 10:56:53;;;;;;;0.30;0.30;;;;;;;0.17;100.00;102377.19;5055380;28;20562;-72
2024/01/21 10:59:20;;;;;;;0.40;0.40;;;;;;;0.03;100.00;102357.22;5043701;28;20044;-72
2024/01/21 11:01:47;;;;;;;0.30;0.30;;;;;;;-0.15;100.00;102306.81;5059356;28;20044;-73
2024/01/21 11:04:13;;;;;;;0.40;0.40;;;;;;;-0.30;100.00;102348.75;5053110;28;20499;-73
2024/01/21 11:06:46;;;;;;;0.30;0.30;;;;;;;-0.23;100.00;102365.59;5058295;28;20044;-73
2024/01/21 11:09:17;;;;;;;0.57;0.57;;;;;;;-0.05;100.00;102368.63;5055602;28;20033;-73
2024/01/21 11:11:47;;;;;;;0.57;0.57;;;;;;;0.22;100.00;102367.19;5068049;28;20439;-74